Hazel Park, MI (48030)

7:20 PM EST on February 06, 2016 (GMT -0500)
APRSWXNET | | Change Station
CLOSE
Current Station
Personal Weather Station
Location: Ferndale, MI
Elevation: 649 ft
Nearby Weather Stations

Elev 649 ft 42.46 °N, 83.13 °W | Updated 21 minutes ago

Clear
Clear
36 °F
Feels Like 36 °F
N
0
Wind Variable Wind from SW
Gusts 2.0 mph

Today
High -- | Low -- °F
--% Chance of Precip.
Yesterday
High -- | Low -- °F
Precip. -- in
Pressure 30.20 in
Visibility 10.0 miles
Clouds Clear
Windchill 36 °F
Dew Point 27 °F
Humidity 70%
Rainfall in
Snow Depth Not available.
7:41 AM 5:52 PM
Waning Crescent, 3% visible
METAR KDET 062353Z 23011KT 10SM CLR 02/M05 A3017 RMK AO2 SLP225 T00171050 10039 20017 53001
Pressure 30.20 in
Visibility 10.0 miles
Clouds Clear
Windchill 36 °F
Dew Point 27 °F
Humidity 70%
Rainfall in
Snow Depth Not available.
7:41 AM 5:52 PM
Waning Crescent, 3% visible
METAR KDET 062353Z 23011KT 10SM CLR 02/M05 A3017 RMK AO2 SLP225 T00171050 10039 20017 53001

10-Day Weather Forecast

Almanac

Astronomy

Feb. 06, 2016 Rise Set
Actual Time
Civil Twilight
Nautical Twilight
Astronomical Twilight
Moon
Length of Visible Light
Length of Day
Tomorrow will be .
, % of the Moon is Illuminated

Today's Extremes

State Highs State Lows

Community

WunderPhotos

Upload Photos

1,891,105 photos uploaded!

WunderBlog® & News

Nearby

Air Quality

  Air Quality AQ Index Pollutant
Not available.

Snow Depth

Station Depth Elevation

Earthquake Activity

City Distance Mag. Time & Date
Minimum magnitude displayed is 2.5.

Coastal Water Temperatures

Place Temperature

Stations

Nearby Weather Stations

Station Location Temp. Windchill Dew Point Humidity Wind Precip. Elev Updated Type
                   

Watches & Warnings

There are currently no watches in effect.